createdAt,value
2023-02-02T00:01:30.764Z,65.70
2023-02-02T00:03:58.104Z,65.72
2023-02-02T00:06:27.411Z,65.85
2023-02-02T00:08:56.958Z,65.79
2023-02-02T00:11:24.633Z,66.20
2023-02-02T00:13:51.289Z,65.46
2023-02-02T00:16:27.244Z,66.45
2023-02-02T00:18:59.457Z,66.29
2023-02-02T00:21:26.435Z,66.19
2023-02-02T00:23:53.404Z,66.10
2023-02-02T00:26:21.028Z,66.61
2023-02-02T00:28:48.051Z,66.81
2023-02-02T00:31:15.058Z,67.11
2023-02-02T00:33:46.115Z,67.90
2023-02-02T00:36:12.772Z,67.62
2023-02-02T00:38:39.453Z,67.85
2023-02-02T00:41:07.361Z,67.87
2023-02-02T00:43:34.318Z,68.66
2023-02-02T00:46:01.552Z,68.88
2023-02-02T00:48:28.313Z,69.60
2023-02-02T00:50:55.279Z,69.85
2023-02-02T00:53:22.060Z,70.07
2023-02-02T00:55:48.865Z,70.30
2023-02-02T00:58:15.673Z,70.12
2023-02-02T01:00:42.413Z,70.41
2023-02-02T01:03:10.039Z,70.49
2023-02-02T01:05:36.967Z,70.73
2023-02-02T01:08:03.683Z,70.68
2023-02-02T01:10:30.413Z,70.75
2023-02-02T01:12:57.116Z,70.92
2023-02-02T01:15:24.004Z,71.11
2023-02-02T01:17:50.867Z,71.26
2023-02-02T01:20:20.233Z,71.52
2023-02-02T01:22:47.826Z,71.29
2023-02-02T01:25:14.534Z,71.73
2023-02-02T01:27:43.197Z,71.98
2023-02-02T01:30:10.936Z,71.61
2023-02-02T01:32:37.627Z,71.34
2023-02-02T01:35:04.522Z,71.66
2023-02-02T01:37:31.232Z,71.43
2023-02-02T01:39:57.882Z,71.29
2023-02-02T01:42:25.620Z,71.42
2023-02-02T01:45:16.428Z,70.87
2023-02-02T01:47:49.082Z,70.91
2023-02-02T01:50:17.595Z,70.63
2023-02-02T01:52:48.484Z,69.64
2023-02-02T01:55:18.900Z,70.00
2023-02-02T01:57:59.633Z,69.97
2023-02-02T02:00:27.871Z,69.95
2023-02-02T02:02:58.890Z,69.81
2023-02-02T02:05:45.176Z,69.30
2023-02-02T02:08:19.772Z,69.41
2023-02-02T02:10:46.715Z,69.50
2023-02-02T02:13:14.542Z,70.02
2023-02-02T02:16:07.766Z,69.37
2023-02-02T02:18:50.580Z,69.42
2023-02-02T02:21:58.521Z,69.10
2023-02-02T02:25:19.063Z,69.22
2023-02-02T02:28:15.245Z,69.25
2023-02-02T02:31:21.948Z,69.10
2023-02-02T02:34:14.825Z,69.20
2023-02-02T02:37:02.355Z,69.24
2023-02-02T02:40:02.786Z,69.45
2023-02-02T02:42:34.078Z,69.21
2023-02-02T02:45:03.138Z,69.40
2023-02-02T02:47:31.446Z,69.37
2023-02-02T02:49:58.260Z,69.37
2023-02-02T02:52:24.982Z,69.19
2023-02-02T02:54:54.831Z,69.22
2023-02-02T02:57:27.675Z,69.24
2023-02-02T03:00:18.219Z,68.99
2023-02-02T03:02:54.012Z,69.05
2023-02-02T03:05:36.296Z,69.44
2023-02-02T03:08:12.817Z,69.29
2023-02-02T03:10:42.774Z,69.43
2023-02-02T03:13:11.830Z,69.17
2023-02-02T03:15:42.951Z,69.37
2023-02-02T03:18:10.207Z,69.50
2023-02-02T03:20:36.857Z,70.36
2023-02-02T03:23:03.658Z,71.33
2023-02-02T03:25:30.325Z,72.72
2023-02-02T03:27:58.569Z,72.93
2023-02-02T03:30:25.560Z,72.55
2023-02-02T03:32:53.066Z,72.46
2023-02-02T03:35:22.959Z,72.83
2023-02-02T03:37:49.851Z,72.97
2023-02-02T03:40:16.697Z,73.44
2023-02-02T03:42:43.365Z,73.15
2023-02-02T03:45:10.870Z,74.03
2023-02-02T03:47:37.571Z,74.51
2023-02-02T03:50:05.662Z,74.00
2023-02-02T03:52:32.354Z,73.96
2023-02-02T03:54:58.982Z,73.60
2023-02-02T03:57:25.696Z,73.95
2023-02-02T03:59:52.345Z,73.31
2023-02-02T04:02:19.241Z,73.24
2023-02-02T04:04:45.871Z,73.18
2023-02-02T04:07:16.056Z,73.08
2023-02-02T04:09:42.791Z,73.09
2023-02-02T04:12:09.476Z,73.11
2023-02-02T04:14:36.159Z,73.46
2023-02-02T04:17:02.835Z,73.57
2023-02-02T04:19:29.539Z,73.60
2023-02-02T04:21:56.168Z,73.67
2023-02-02T04:24:22.922Z,74.06
2023-02-02T04:26:49.864Z,73.47
2023-02-02T04:29:16.531Z,73.44
2023-02-02T04:31:43.337Z,72.98
2023-02-02T04:34:10.104Z,73.90
2023-02-02T04:36:36.788Z,74.26
2023-02-02T04:39:03.695Z,74.60
2023-02-02T04:41:30.405Z,75.05
2023-02-02T04:43:57.086Z,75.06
2023-02-02T04:46:23.769Z,74.81
2023-02-02T04:48:50.459Z,74.56
2023-02-02T04:51:18.790Z,74.53
2023-02-02T04:53:45.905Z,74.16
2023-02-02T04:56:17.701Z,73.92
2023-02-02T04:58:45.610Z,73.74
2023-02-02T05:01:16.421Z,73.58
2023-02-02T05:03:43.214Z,73.58
2023-02-02T05:06:10.121Z,73.95
2023-02-02T05:08:37.298Z,73.69
2023-02-02T05:11:12.627Z,73.90
2023-02-02T05:13:39.839Z,73.41
2023-02-02T05:16:07.272Z,73.70
2023-02-02T05:18:33.901Z,73.41
2023-02-02T05:21:01.790Z,73.76
2023-02-02T05:23:29.839Z,73.50
2023-02-02T05:25:57.312Z,73.33
2023-02-02T05:28:25.089Z,73.73
2023-02-02T05:30:52.751Z,73.31
2023-02-02T05:33:19.894Z,73.60
2023-02-02T05:35:48.278Z,73.58
2023-02-02T05:38:16.037Z,73.67
2023-02-02T05:40:42.966Z,73.82
2023-02-02T05:43:09.672Z,73.69
2023-02-02T05:45:36.427Z,73.75
2023-02-02T05:48:03.128Z,73.26
2023-02-02T05:50:29.780Z,73.85
2023-02-02T05:53:06.441Z,73.54
2023-02-02T05:55:33.171Z,73.90
2023-02-02T05:57:59.900Z,73.89
2023-02-02T06:00:26.645Z,73.95
2023-02-02T06:02:53.407Z,73.64
2023-02-02T06:05:20.185Z,73.61
2023-02-02T06:07:46.889Z,73.09
2023-02-02T06:10:13.805Z,73.01
2023-02-02T06:12:40.489Z,72.86
2023-02-02T06:15:07.832Z,73.16
2023-02-02T06:17:34.531Z,73.60
2023-02-02T06:20:01.181Z,73.35
2023-02-02T06:22:27.944Z,73.17
2023-02-02T06:24:54.635Z,72.86
2023-02-02T06:27:21.521Z,72.81
2023-02-02T06:29:48.364Z,72.74
2023-02-02T06:32:15.437Z,72.66
2023-02-02T06:34:42.156Z,72.59
2023-02-02T06:37:08.843Z,72.16
2023-02-02T06:39:35.582Z,72.46
2023-02-02T06:42:19.209Z,72.52
2023-02-02T06:44:47.782Z,72.69
2023-02-02T06:47:14.506Z,72.65
2023-02-02T06:49:41.159Z,72.53
2023-02-02T06:52:08.030Z,72.18
2023-02-02T06:54:34.679Z,72.11
2023-02-02T06:57:01.498Z,72.51
2023-02-02T06:59:28.164Z,72.34
2023-02-02T07:01:54.985Z,72.19
2023-02-02T07:04:21.902Z,72.20
2023-02-02T07:06:48.728Z,72.28
2023-02-02T07:09:15.426Z,72.12
2023-02-02T07:11:45.452Z,72.51
2023-02-02T07:14:12.872Z,72.61
2023-02-02T07:16:39.521Z,72.64
2023-02-02T07:19:06.246Z,72.82
2023-02-02T07:21:36.407Z,72.68
2023-02-02T07:24:05.483Z,72.73
2023-02-02T07:26:34.592Z,73.03
2023-02-02T07:29:01.805Z,73.10
2023-02-02T07:31:29.464Z,72.77
2023-02-02T07:33:56.776Z,73.35
2023-02-02T07:36:24.680Z,73.06
2023-02-02T07:38:57.812Z,73.06
2023-02-02T07:41:25.027Z,73.31
2023-02-02T07:43:52.207Z,73.25
2023-02-02T07:46:19.923Z,73.64
2023-02-02T07:48:47.400Z,73.67
2023-02-02T07:51:18.340Z,73.67
2023-02-02T07:53:46.937Z,74.76
2023-02-02T07:56:16.500Z,74.88
2023-02-02T07:58:44.194Z,75.71
2023-02-02T08:01:12.986Z,76.26
2023-02-02T08:03:40.230Z,76.39
2023-02-02T08:06:18.187Z,76.27
2023-02-02T08:08:45.234Z,75.88
2023-02-02T08:11:13.616Z,75.51
2023-02-02T08:13:41.695Z,74.49
2023-02-02T08:16:08.790Z,74.54
2023-02-02T08:18:36.079Z,74.75
2023-02-02T08:21:04.199Z,74.75
2023-02-02T08:23:31.473Z,74.65
2023-02-02T08:26:16.985Z,74.56
2023-02-02T08:28:45.745Z,74.34
2023-02-02T08:31:16.074Z,74.41
2023-02-02T08:33:43.622Z,74.58
2023-02-02T08:36:14.746Z,74.88
2023-02-02T08:38:41.703Z,74.99
2023-02-02T08:41:11.359Z,74.77
2023-02-02T08:43:38.578Z,75.14
2023-02-02T08:46:06.131Z,75.54
2023-02-02T08:48:34.878Z,75.47
2023-02-02T08:51:02.383Z,75.19
2023-02-02T08:53:29.746Z,76.19
2023-02-02T08:56:00.106Z,76.93
2023-02-02T08:58:28.020Z,76.84
2023-02-02T09:00:54.858Z,76.50
2023-02-02T09:03:21.549Z,77.25
2023-02-02T09:05:48.559Z,76.81
2023-02-02T09:08:15.274Z,76.84
2023-02-02T09:10:41.973Z,76.55
2023-02-02T09:13:08.599Z,76.94
2023-02-02T09:15:35.375Z,76.38
2023-02-02T09:18:02.068Z,77.02
2023-02-02T09:20:28.986Z,76.58
2023-02-02T09:22:57.397Z,76.67
2023-02-02T09:25:27.580Z,76.30
2023-02-02T09:27:54.528Z,76.71
2023-02-02T09:30:21.324Z,76.67
2023-02-02T09:32:51.132Z,76.30
2023-02-02T09:35:17.878Z,76.30
2023-02-02T09:37:45.521Z,76.54
2023-02-02T09:40:19.544Z,76.53
2023-02-02T09:42:58.544Z,76.63
2023-02-02T09:45:55.314Z,76.80
2023-02-02T09:48:33.985Z,76.78
2023-02-02T09:51:09.393Z,76.41
2023-02-02T09:53:55.866Z,76.81
2023-02-02T09:56:31.793Z,76.81
2023-02-02T09:59:13.783Z,76.83
2023-02-02T10:01:47.960Z,76.60
2023-02-02T10:04:18.859Z,77.17
2023-02-02T10:06:51.493Z,76.77
2023-02-02T10:09:33.934Z,76.79
2023-02-02T10:12:31.397Z,76.91
2023-02-02T10:15:17.838Z,76.74
2023-02-02T10:17:47.961Z,76.47
2023-02-02T10:20:30.778Z,76.49
2023-02-02T10:23:05.987Z,75.91
2023-02-02T10:25:35.363Z,76.03
2023-02-02T10:28:20.512Z,75.71
2023-02-02T10:30:55.736Z,76.00
2023-02-02T10:34:02.626Z,75.32
2023-02-02T10:36:56.399Z,75.38
2023-02-02T10:39:49.691Z,75.72
2023-02-02T10:42:28.576Z,75.51
2023-02-02T10:44:58.858Z,75.50
2023-02-02T10:47:32.299Z,75.90
2023-02-02T10:50:20.334Z,75.19
2023-02-02T10:52:53.384Z,75.90
2023-02-02T10:55:28.604Z,75.67
2023-02-02T10:58:13.395Z,75.72
2023-02-02T11:01:01.309Z,75.51
2023-02-02T11:03:31.420Z,75.57
2023-02-02T11:06:22.449Z,76.13
2023-02-02T11:08:57.127Z,76.16
2023-02-02T11:11:33.028Z,76.50
2023-02-02T11:14:16.122Z,76.48
2023-02-02T11:16:45.675Z,76.38
2023-02-02T11:19:18.124Z,76.75
2023-02-02T11:21:51.519Z,76.70
2023-02-02T11:24:23.252Z,77.19
2023-02-02T11:26:58.198Z,77.03
2023-02-02T11:29:31.396Z,76.66
2023-02-02T11:31:58.745Z,76.86
2023-02-02T11:34:27.926Z,76.31
2023-02-02T11:37:01.275Z,76.75
2023-02-02T11:39:28.462Z,76.82
2023-02-02T11:42:05.210Z,76.93
2023-02-02T11:44:32.816Z,76.63
2023-02-02T11:47:01.451Z,77.06
2023-02-02T11:49:28.626Z,77.56
2023-02-02T11:52:04.718Z,76.99
2023-02-02T11:54:34.579Z,77.45
2023-02-02T11:57:05.160Z,77.19
2023-02-02T11:59:40.255Z,77.81
2023-02-02T12:02:30.835Z,77.75
2023-02-02T12:05:23.702Z,78.29
2023-02-02T12:07:50.865Z,78.18
2023-02-02T12:10:17.784Z,77.97
2023-02-02T12:13:09.983Z,78.01
2023-02-02T12:15:59.817Z,78.31
2023-02-02T12:19:00.501Z,78.38
2023-02-02T12:21:33.092Z,78.35
2023-02-02T12:24:00.215Z,78.37
2023-02-02T12:26:38.745Z,78.61
2023-02-02T12:29:20.881Z,78.78
2023-02-02T12:31:53.876Z,78.56
2023-02-02T12:34:23.965Z,78.84
2023-02-02T12:37:18.938Z,78.97
2023-02-02T12:40:04.214Z,78.72
2023-02-02T12:42:41.615Z,79.49
2023-02-02T12:45:20.523Z,79.20
2023-02-02T12:48:15.297Z,79.13
2023-02-02T12:50:45.002Z,79.83
2023-02-02T12:53:20.894Z,79.92
2023-02-02T12:55:58.357Z,80.37
2023-02-02T12:58:33.012Z,80.44
2023-02-02T13:01:21.338Z,80.39
2023-02-02T13:04:18.859Z,81.01
2023-02-02T13:07:03.881Z,80.58
2023-02-02T13:09:38.043Z,80.87
2023-02-02T13:12:10.307Z,81.16
2023-02-02T13:14:51.790Z,81.06
2023-02-02T13:17:26.475Z,81.45
2023-02-02T13:20:03.417Z,80.88
2023-02-02T13:22:38.315Z,81.49
2023-02-02T13:25:15.442Z,81.48
2023-02-02T13:27:43.812Z,81.38
2023-02-02T13:30:20.501Z,81.55
2023-02-02T13:32:51.022Z,81.22
2023-02-02T13:35:22.392Z,81.34
2023-02-02T13:37:55.719Z,81.58
2023-02-02T13:40:40.842Z,81.61
2023-02-02T13:43:45.362Z,81.78
2023-02-02T13:46:31.403Z,81.96
2023-02-02T13:49:10.892Z,82.30
2023-02-02T13:52:28.852Z,82.29
2023-02-02T13:55:28.481Z,82.16
2023-02-02T13:58:01.596Z,82.21
2023-02-02T14:00:37.147Z,82.38
2023-02-02T14:03:29.855Z,82.27
2023-02-02T14:06:06.456Z,82.57
2023-02-02T14:08:33.841Z,82.18
2023-02-02T14:11:03.890Z,82.42
2023-02-02T14:14:16.838Z,82.92
2023-02-02T14:16:47.331Z,82.82
2023-02-02T14:19:33.236Z,82.83
2023-02-02T14:22:05.172Z,82.59
2023-02-02T14:24:37.757Z,82.81
2023-02-02T14:27:44.562Z,82.95
2023-02-02T14:30:21.740Z,83.34
2023-02-02T14:32:48.463Z,82.71
2023-02-02T14:35:15.215Z,82.48
2023-02-02T14:37:47.349Z,82.65
2023-02-02T14:40:16.746Z,82.70
2023-02-02T14:43:29.770Z,82.61
2023-02-02T14:46:14.677Z,83.11
2023-02-02T14:48:46.053Z,82.63
2023-02-02T14:51:20.096Z,83.16
2023-02-02T14:53:50.939Z,83.40
2023-02-02T14:56:19.305Z,83.75
2023-02-02T14:58:48.860Z,84.08
2023-02-02T15:01:21.754Z,83.96
2023-02-02T15:03:57.431Z,83.50
2023-02-02T15:06:42.191Z,83.89
2023-02-02T15:09:20.938Z,84.03
2023-02-02T15:12:01.630Z,83.63
2023-02-02T15:14:31.464Z,83.67
2023-02-02T15:17:24.521Z,83.86
2023-02-02T15:20:06.372Z,83.51
2023-02-02T15:22:41.527Z,83.34
2023-02-02T15:25:23.141Z,83.47
2023-02-02T15:28:17.785Z,83.74
2023-02-02T15:30:48.446Z,83.46
2023-02-02T15:33:29.954Z,84.09
2023-02-02T15:36:00.606Z,84.49
2023-02-02T15:38:34.802Z,84.00
2023-02-02T15:41:33.036Z,84.31
2023-02-02T15:44:01.185Z,83.56
2023-02-02T15:46:35.933Z,84.17
2023-02-02T15:49:33.724Z,84.03
2023-02-02T15:52:14.453Z,83.75
2023-02-02T15:54:51.174Z,84.07
2023-02-02T15:57:26.235Z,84.43
2023-02-02T15:59:53.012Z,84.12
2023-02-02T16:02:40.248Z,84.15
2023-02-02T16:05:39.504Z,83.64
2023-02-02T16:08:13.597Z,83.98
2023-02-02T16:10:40.416Z,84.16
2023-02-02T16:13:07.257Z,84.27
2023-02-02T16:15:33.927Z,84.00
2023-02-02T16:18:15.365Z,83.71
2023-02-02T16:20:43.151Z,83.50
2023-02-02T16:23:16.266Z,83.48
2023-02-02T16:25:49.859Z,83.97
2023-02-02T16:28:22.050Z,83.53
2023-02-02T16:30:51.799Z,83.65
2023-02-02T16:33:28.913Z,83.36
2023-02-02T16:35:56.371Z,83.74
2023-02-02T16:38:30.145Z,83.26
2023-02-02T16:41:09.706Z,83.00
2023-02-02T16:43:38.511Z,83.49
2023-02-02T16:46:07.494Z,83.06
2023-02-02T16:48:37.019Z,83.16
2023-02-02T16:51:21.124Z,83.55
2023-02-02T16:53:56.699Z,83.32
2023-02-02T16:56:34.632Z,82.95
2023-02-02T16:59:07.443Z,82.84
2023-02-02T17:01:49.122Z,82.67
2023-02-02T17:04:26.522Z,82.97
2023-02-02T17:06:54.999Z,83.19
2023-02-02T17:09:34.756Z,82.60
2023-02-02T17:12:32.080Z,82.72
2023-02-02T17:15:05.704Z,82.83
2023-02-02T17:17:32.401Z,82.56
2023-02-02T17:19:59.080Z,82.80
2023-02-02T17:22:27.909Z,82.40
2023-02-02T17:24:54.936Z,82.81
2023-02-02T17:27:27.950Z,82.13
2023-02-02T17:29:55.581Z,82.17
2023-02-02T17:32:23.711Z,81.87
2023-02-02T17:34:50.569Z,82.08
2023-02-02T17:37:17.271Z,82.00
2023-02-02T17:39:44.029Z,82.05
2023-02-02T17:42:24.425Z,81.99
2023-02-02T17:44:51.138Z,81.81
2023-02-02T17:47:17.875Z,81.97
2023-02-02T17:49:44.599Z,81.82
2023-02-02T17:52:12.758Z,81.32
2023-02-02T17:54:39.480Z,81.48
2023-02-02T17:57:06.136Z,81.36
2023-02-02T17:59:32.819Z,81.55
2023-02-02T18:01:59.625Z,81.58
2023-02-02T18:04:27.013Z,81.19
2023-02-02T18:06:53.651Z,81.07
2023-02-02T18:09:20.365Z,81.27
2023-02-02T18:11:49.816Z,80.79
2023-02-02T18:14:16.588Z,81.15
2023-02-02T18:16:43.359Z,81.28
2023-02-02T18:19:10.459Z,80.66
2023-02-02T18:21:37.592Z,80.86
2023-02-02T18:24:04.519Z,80.68
2023-02-02T18:26:32.701Z,80.51
2023-02-02T18:28:59.565Z,80.56
2023-02-02T18:31:27.135Z,80.85
2023-02-02T18:33:54.535Z,80.51
2023-02-02T18:36:23.659Z,80.47
2023-02-02T18:38:53.724Z,80.65
2023-02-02T18:41:23.831Z,80.93
2023-02-02T18:43:54.144Z,80.98
2023-02-02T18:46:21.023Z,81.12
2023-02-02T18:48:47.823Z,81.32
2023-02-02T18:51:18.125Z,81.19
2023-02-02T18:53:46.231Z,81.44
2023-02-02T18:56:14.698Z,81.58
2023-02-02T18:58:41.633Z,81.78
2023-02-02T19:01:13.619Z,81.72
2023-02-02T19:03:41.037Z,82.06
2023-02-02T19:06:27.977Z,81.88
2023-02-02T19:08:55.457Z,82.00
2023-02-02T19:11:24.697Z,82.01
2023-02-02T19:13:51.424Z,82.06
2023-02-02T19:16:30.080Z,82.17
2023-02-02T19:19:00.626Z,82.01
2023-02-02T19:21:30.828Z,82.49
2023-02-02T19:23:59.515Z,82.64
2023-02-02T19:26:28.226Z,82.46
2023-02-02T19:29:02.915Z,82.81
2023-02-02T19:31:29.833Z,82.59
2023-02-02T19:33:57.748Z,83.04
2023-02-02T19:36:30.889Z,82.86
2023-02-02T19:39:11.556Z,82.90
2023-02-02T19:41:47.937Z,83.18
2023-02-02T19:44:18.852Z,83.42
2023-02-02T19:46:49.757Z,83.40
2023-02-02T19:49:34.543Z,83.45
2023-02-02T19:52:03.976Z,83.35
2023-02-02T19:54:33.400Z,83.50
2023-02-02T19:57:10.192Z,83.60
2023-02-02T19:59:36.967Z,83.46
2023-02-02T20:02:41.986Z,83.81
2023-02-02T20:05:11.953Z,83.87
2023-02-02T20:07:39.332Z,83.86
2023-02-02T20:10:18.952Z,83.39
2023-02-02T20:12:45.864Z,83.53
2023-02-02T20:15:34.764Z,83.63
2023-02-02T20:18:11.641Z,83.79
2023-02-02T20:20:41.266Z,83.77
2023-02-02T20:23:26.989Z,83.72
2023-02-02T20:25:53.734Z,83.68
2023-02-02T20:28:33.004Z,83.53
2023-02-02T20:31:03.155Z,83.82
2023-02-02T20:33:31.068Z,83.99
2023-02-02T20:35:57.935Z,84.05
2023-02-02T20:38:32.047Z,84.20
2023-02-02T20:40:59.331Z,83.98
2023-02-02T20:43:26.112Z,84.22
2023-02-02T20:45:52.933Z,84.00
2023-02-02T20:48:20.086Z,84.23
2023-02-02T20:50:47.062Z,84.49
2023-02-02T20:53:16.686Z,84.34
2023-02-02T20:55:44.723Z,84.41
2023-02-02T20:58:11.862Z,84.37
2023-02-02T21:00:39.211Z,84.78
2023-02-02T21:03:06.139Z,84.31
2023-02-02T21:05:32.916Z,84.27
2023-02-02T21:07:59.735Z,84.46
2023-02-02T21:10:27.081Z,84.69
2023-02-02T21:12:54.063Z,84.69
2023-02-02T21:15:21.025Z,84.28
2023-02-02T21:17:47.910Z,84.86
2023-02-02T21:20:15.063Z,84.50
2023-02-02T21:22:42.194Z,84.72
2023-02-02T21:25:09.782Z,84.58
2023-02-02T21:27:37.779Z,85.00
2023-02-02T21:30:05.262Z,84.61
2023-02-02T21:32:33.813Z,84.88
2023-02-02T21:35:00.793Z,84.82
2023-02-02T21:37:28.167Z,84.65
2023-02-02T21:39:59.760Z,84.34
2023-02-02T21:42:27.406Z,84.44
2023-02-02T21:44:57.178Z,84.92
2023-02-02T21:47:26.888Z,84.39
2023-02-02T21:49:56.080Z,84.54
2023-02-02T21:52:22.895Z,84.61
2023-02-02T21:54:50.959Z,84.21
2023-02-02T21:57:28.244Z,84.41
2023-02-02T21:59:56.615Z,84.58
2023-02-02T22:02:35.495Z,84.53
2023-02-02T22:05:11.071Z,84.23
2023-02-02T22:07:37.804Z,84.27
2023-02-02T22:10:25.064Z,84.43
2023-02-02T22:12:51.960Z,84.01
2023-02-02T22:15:21.924Z,83.68
2023-02-02T22:17:49.309Z,83.92
2023-02-02T22:20:16.017Z,83.66
2023-02-02T22:22:48.988Z,83.35
2023-02-02T22:25:20.164Z,83.26
2023-02-02T22:27:50.375Z,83.26
2023-02-02T22:30:33.048Z,83.18
2023-02-02T22:32:59.837Z,83.16
2023-02-02T22:35:26.558Z,83.18
2023-02-02T22:37:53.649Z,82.86
2023-02-02T22:40:24.279Z,82.57
2023-02-02T22:42:52.807Z,81.96
2023-02-02T22:45:20.030Z,81.56
2023-02-02T22:47:47.853Z,81.87
2023-02-02T22:50:22.023Z,81.94
2023-02-02T22:52:49.199Z,81.81
2023-02-02T22:55:16.204Z,81.83
2023-02-02T22:57:43.264Z,81.51
2023-02-02T23:00:14.012Z,81.29
2023-02-02T23:02:42.072Z,81.03
2023-02-02T23:05:12.256Z,81.11
2023-02-02T23:07:39.873Z,81.48
2023-02-02T23:10:08.094Z,81.53
2023-02-02T23:12:34.981Z,81.25
2023-02-02T23:15:02.104Z,81.39
2023-02-02T23:17:29.092Z,81.63
2023-02-02T23:19:55.842Z,81.25
2023-02-02T23:22:22.601Z,80.53
2023-02-02T23:24:49.395Z,80.75
2023-02-02T23:27:16.040Z,80.42
2023-02-02T23:29:42.793Z,80.70
2023-02-02T23:32:09.526Z,80.72
2023-02-02T23:34:36.206Z,80.73
2023-02-02T23:37:02.883Z,80.79
2023-02-02T23:39:29.609Z,80.68
2023-02-02T23:41:56.287Z,80.78
2023-02-02T23:44:22.988Z,80.30
2023-02-02T23:46:51.186Z,79.81
2023-02-02T23:49:18.325Z,80.04
2023-02-02T23:51:45.222Z,80.23
2023-02-02T23:54:13.620Z,80.21
2023-02-02T23:56:41.910Z,80.42
2023-02-02T23:59:09.429Z,79.55
